sensor_id;sensor_type;location;lat;lon;timestamp;P1;durP1;ratioP1;P2;durP2;ratioP2
60610;SDS011;46439;51.164;13.572;2022-09-13T00:01:24;4.60;;;3.20;;
60610;SDS011;46439;51.164;13.572;2022-09-13T00:03:53;4.10;;;3.00;;
60610;SDS011;46439;51.164;13.572;2022-09-13T00:06:21;5.50;;;3.00;;
60610;SDS011;46439;51.164;13.572;2022-09-13T00:08:49;4.80;;;3.20;;
60610;SDS011;46439;51.164;13.572;2022-09-13T00:11:20;6.40;;;3.40;;
60610;SDS011;46439;51.164;13.572;2022-09-13T00:13:49;7.00;;;3.20;;
60610;SDS011;46439;51.164;13.572;2022-09-13T00:16:19;7.20;;;3.30;;
60610;SDS011;46439;51.164;13.572;2022-09-13T00:18:50;6.50;;;3.20;;
60610;SDS011;46439;51.164;13.572;2022-09-13T00:21:22;4.80;;;3.10;;
60610;SDS011;46439;51.164;13.572;2022-09-13T00:23:51;4.50;;;3.20;;
60610;SDS011;46439;51.164;13.572;2022-09-13T00:26:21;5.30;;;3.00;;
60610;SDS011;46439;51.164;13.572;2022-09-13T00:28:51;5.50;;;3.30;;
60610;SDS011;46439;51.164;13.572;2022-09-13T00:31:21;4.70;;;3.10;;
60610;SDS011;46439;51.164;13.572;2022-09-13T00:33:51;3.70;;;2.90;;
60610;SDS011;46439;51.164;13.572;2022-09-13T00:36:20;4.60;;;3.20;;
60610;SDS011;46439;51.164;13.572;2022-09-13T00:38:48;4.10;;;2.90;;
60610;SDS011;46439;51.164;13.572;2022-09-13T00:41:17;7.70;;;3.20;;
60610;SDS011;46439;51.164;13.572;2022-09-13T00:43:48;4.50;;;3.00;;
60610;SDS011;46439;51.164;13.572;2022-09-13T00:46:20;3.60;;;3.00;;
60610;SDS011;46439;51.164;13.572;2022-09-13T00:48:58;4.30;;;3.00;;
60610;SDS011;46439;51.164;13.572;2022-09-13T00:51:33;4.90;;;3.00;;
60610;SDS011;46439;51.164;13.572;2022-09-13T00:54:02;3.30;;;2.80;;
60610;SDS011;46439;51.164;13.572;2022-09-13T00:56:31;4.40;;;2.70;;
60610;SDS011;46439;51.164;13.572;2022-09-13T00:59:04;4.40;;;2.80;;
60610;SDS011;46439;51.164;13.572;2022-09-13T01:01:39;4.00;;;3.20;;
60610;SDS011;46439;51.164;13.572;2022-09-13T01:04:13;7.00;;;3.30;;
60610;SDS011;46439;51.164;13.572;2022-09-13T01:06:44;6.50;;;2.90;;
60610;SDS011;46439;51.164;13.572;2022-09-13T01:09:13;5.70;;;3.10;;
60610;SDS011;46439;51.164;13.572;2022-09-13T01:11:44;5.60;;;3.00;;
60610;SDS011;46439;51.164;13.572;2022-09-13T01:14:16;4.00;;;3.10;;
60610;SDS011;46439;51.164;13.572;2022-09-13T01:16:45;8.10;;;3.00;;
60610;SDS011;46439;51.164;13.572;2022-09-13T01:19:14;7.20;;;3.80;;
60610;SDS011;46439;51.164;13.572;2022-09-13T01:28:11;4.40;;;3.10;;
60610;SDS011;46439;51.164;13.572;2022-09-13T01:30:52;4.00;;;2.80;;
60610;SDS011;46439;51.164;13.572;2022-09-13T01:33:32;3.90;;;3.10;;
60610;SDS011;46439;51.164;13.572;2022-09-13T01:36:17;4.60;;;2.90;;
60610;SDS011;46439;51.164;13.572;2022-09-13T01:39:00;4.40;;;2.60;;
60610;SDS011;46439;51.164;13.572;2022-09-13T01:41:35;4.30;;;3.10;;
60610;SDS011;46439;51.164;13.572;2022-09-13T01:44:18;4.70;;;2.90;;
60610;SDS011;46439;51.164;13.572;2022-09-13T01:46:58;4.20;;;2.80;;
60610;SDS011;46439;51.164;13.572;2022-09-13T01:49:34;3.70;;;2.90;;
60610;SDS011;46439;51.164;13.572;2022-09-13T01:52:16;5.50;;;3.20;;
60610;SDS011;46439;51.164;13.572;2022-09-13T01:54:52;3.30;;;2.90;;
60610;SDS011;46439;51.164;13.572;2022-09-13T01:57:29;5.00;;;2.90;;
60610;SDS011;46439;51.164;13.572;2022-09-13T02:00:03;4.20;;;3.00;;
60610;SDS011;46439;51.164;13.572;2022-09-13T02:02:38;6.10;;;3.30;;
60610;SDS011;46439;51.164;13.572;2022-09-13T02:05:11;5.10;;;3.00;;
60610;SDS011;46439;51.164;13.572;2022-09-13T02:07:44;4.60;;;3.10;;
60610;SDS011;46439;51.164;13.572;2022-09-13T02:10:20;8.20;;;4.30;;
60610;SDS011;46439;51.164;13.572;2022-09-13T02:12:52;4.90;;;3.10;;
60610;SDS011;46439;51.164;13.572;2022-09-13T02:15:23;5.40;;;2.90;;
60610;SDS011;46439;51.164;13.572;2022-09-13T02:17:55;4.20;;;3.10;;
60610;SDS011;46439;51.164;13.572;2022-09-13T02:20:32;4.60;;;3.50;;
60610;SDS011;46439;51.164;13.572;2022-09-13T02:23:03;4.70;;;3.20;;
60610;SDS011;46439;51.164;13.572;2022-09-13T02:25:36;4.10;;;3.10;;
60610;SDS011;46439;51.164;13.572;2022-09-13T02:28:08;4.90;;;3.30;;
60610;SDS011;46439;51.164;13.572;2022-09-13T02:30:39;4.80;;;3.30;;
60610;SDS011;46439;51.164;13.572;2022-09-13T02:33:12;4.40;;;3.10;;
60610;SDS011;46439;51.164;13.572;2022-09-13T02:38:15;4.20;;;3.10;;
60610;SDS011;46439;51.164;13.572;2022-09-13T02:40:50;4.20;;;3.40;;
60610;SDS011;46439;51.164;13.572;2022-09-13T02:43:24;4.70;;;3.30;;
60610;SDS011;46439;51.164;13.572;2022-09-13T02:45:59;3.40;;;3.00;;
60610;SDS011;46439;51.164;13.572;2022-09-13T02:48:44;3.40;;;2.90;;
60610;SDS011;46439;51.164;13.572;2022-09-13T02:51:22;4.30;;;3.30;;
60610;SDS011;46439;51.164;13.572;2022-09-13T02:53:58;5.10;;;3.10;;
60610;SDS011;46439;51.164;13.572;2022-09-13T02:56:36;3.80;;;3.10;;
60610;SDS011;46439;51.164;13.572;2022-09-13T02:59:15;5.80;;;3.40;;
60610;SDS011;46439;51.164;13.572;2022-09-13T03:01:45;4.60;;;3.20;;
60610;SDS011;46439;51.164;13.572;2022-09-13T03:04:18;7.00;;;3.30;;
60610;SDS011;46439;51.164;13.572;2022-09-13T03:06:48;4.60;;;3.50;;
60610;SDS011;46439;51.164;13.572;2022-09-13T03:09:16;3.90;;;3.30;;
60610;SDS011;46439;51.164;13.572;2022-09-13T03:11:54;4.60;;;3.30;;
60610;SDS011;46439;51.164;13.572;2022-09-13T03:17:11;5.70;;;3.50;;
60610;SDS011;46439;51.164;13.572;2022-09-13T03:19:55;5.60;;;3.80;;
60610;SDS011;46439;51.164;13.572;2022-09-13T03:22:39;4.40;;;3.20;;
60610;SDS011;46439;51.164;13.572;2022-09-13T03:25:22;4.90;;;3.10;;
60610;SDS011;46439;51.164;13.572;2022-09-13T03:27:59;4.80;;;3.60;;
60610;SDS011;46439;51.164;13.572;2022-09-13T03:30:33;5.90;;;3.50;;
60610;SDS011;46439;51.164;13.572;2022-09-13T03:33:05;6.50;;;3.70;;
60610;SDS011;46439;51.164;13.572;2022-09-13T03:35:43;7.00;;;3.20;;
60610;SDS011;46439;51.164;13.572;2022-09-13T03:38:18;3.80;;;3.30;;
60610;SDS011;46439;51.164;13.572;2022-09-13T03:40:50;4.90;;;3.20;;
60610;SDS011;46439;51.164;13.572;2022-09-13T03:43:23;3.90;;;3.30;;
60610;SDS011;46439;51.164;13.572;2022-09-13T03:46:02;5.00;;;3.50;;
60610;SDS011;46439;51.164;13.572;2022-09-13T03:48:36;6.30;;;3.40;;
60610;SDS011;46439;51.164;13.572;2022-09-13T03:51:08;4.30;;;3.40;;
60610;SDS011;46439;51.164;13.572;2022-09-13T03:53:38;9.20;;;3.30;;
60610;SDS011;46439;51.164;13.572;2022-09-13T03:58:39;6.40;;;3.40;;
60610;SDS011;46439;51.164;13.572;2022-09-13T04:01:08;7.20;;;3.30;;
60610;SDS011;46439;51.164;13.572;2022-09-13T04:03:37;5.10;;;3.00;;
60610;SDS011;46439;51.164;13.572;2022-09-13T04:06:06;6.80;;;3.20;;
60610;SDS011;46439;51.164;13.572;2022-09-13T04:08:35;8.20;;;3.60;;
60610;SDS011;46439;51.164;13.572;2022-09-13T04:11:04;4.90;;;3.10;;
60610;SDS011;46439;51.164;13.572;2022-09-13T04:13:34;5.30;;;3.30;;
60610;SDS011;46439;51.164;13.572;2022-09-13T04:16:03;5.30;;;3.40;;
60610;SDS011;46439;51.164;13.572;2022-09-13T04:18:33;4.80;;;3.10;;
60610;SDS011;46439;51.164;13.572;2022-09-13T04:21:02;4.70;;;3.40;;
60610;SDS011;46439;51.164;13.572;2022-09-13T04:23:31;8.50;;;3.70;;
60610;SDS011;46439;51.164;13.572;2022-09-13T04:26:02;4.80;;;3.80;;
60610;SDS011;46439;51.164;13.572;2022-09-13T04:28:31;5.90;;;3.80;;
60610;SDS011;46439;51.164;13.572;2022-09-13T04:31:00;5.90;;;3.90;;
60610;SDS011;46439;51.164;13.572;2022-09-13T04:33:28;7.30;;;3.60;;
60610;SDS011;46439;51.164;13.572;2022-09-13T04:36:00;6.20;;;3.80;;
60610;SDS011;46439;51.164;13.572;2022-09-13T04:38:28;6.40;;;3.40;;
60610;SDS011;46439;51.164;13.572;2022-09-13T04:40:57;5.80;;;3.70;;
60610;SDS011;46439;51.164;13.572;2022-09-13T04:43:25;6.10;;;3.80;;
60610;SDS011;46439;51.164;13.572;2022-09-13T04:45:53;5.40;;;3.70;;
60610;SDS011;46439;51.164;13.572;2022-09-13T04:48:25;6.40;;;3.50;;
60610;SDS011;46439;51.164;13.572;2022-09-13T04:50:53;6.10;;;3.90;;
60610;SDS011;46439;51.164;13.572;2022-09-13T04:53:30;5.90;;;3.70;;
60610;SDS011;46439;51.164;13.572;2022-09-13T04:56:00;5.60;;;3.90;;
60610;SDS011;46439;51.164;13.572;2022-09-13T04:58:30;8.00;;;3.80;;
60610;SDS011;46439;51.164;13.572;2022-09-13T05:01:01;4.70;;;3.70;;
60610;SDS011;46439;51.164;13.572;2022-09-13T05:03:30;6.70;;;4.00;;
60610;SDS011;46439;51.164;13.572;2022-09-13T05:06:02;6.40;;;4.00;;
60610;SDS011;46439;51.164;13.572;2022-09-13T05:08:31;8.40;;;5.00;;
60610;SDS011;46439;51.164;13.572;2022-09-13T05:11:00;6.10;;;4.30;;
60610;SDS011;46439;51.164;13.572;2022-09-13T05:13:29;7.20;;;4.00;;
60610;SDS011;46439;51.164;13.572;2022-09-13T05:15:59;7.80;;;4.00;;
60610;SDS011;46439;51.164;13.572;2022-09-13T05:18:30;6.50;;;4.40;;
60610;SDS011;46439;51.164;13.572;2022-09-13T05:21:00;9.90;;;4.90;;
60610;SDS011;46439;51.164;13.572;2022-09-13T05:23:30;11.30;;;5.70;;
60610;SDS011;46439;51.164;13.572;2022-09-13T05:26:00;8.30;;;4.60;;
60610;SDS011;46439;51.164;13.572;2022-09-13T05:28:30;7.00;;;4.80;;
60610;SDS011;46439;51.164;13.572;2022-09-13T05:31:01;7.00;;;4.50;;
60610;SDS011;46439;51.164;13.572;2022-09-13T05:33:31;7.00;;;4.60;;
60610;SDS011;46439;51.164;13.572;2022-09-13T05:36:01;8.30;;;4.50;;
60610;SDS011;46439;51.164;13.572;2022-09-13T05:38:30;6.10;;;4.40;;
60610;SDS011;46439;51.164;13.572;2022-09-13T05:41:00;10.50;;;5.00;;
60610;SDS011;46439;51.164;13.572;2022-09-13T05:43:30;7.00;;;4.90;;
60610;SDS011;46439;51.164;13.572;2022-09-13T05:46:00;7.20;;;4.30;;
60610;SDS011;46439;51.164;13.572;2022-09-13T05:48:30;7.90;;;4.10;;
60610;SDS011;46439;51.164;13.572;2022-09-13T05:51:04;5.70;;;4.00;;
60610;SDS011;46439;51.164;13.572;2022-09-13T05:53:34;8.40;;;4.20;;
60610;SDS011;46439;51.164;13.572;2022-09-13T05:56:05;5.90;;;3.90;;
60610;SDS011;46439;51.164;13.572;2022-09-13T05:58:37;5.90;;;4.10;;
60610;SDS011;46439;51.164;13.572;2022-09-13T06:01:06;6.80;;;4.20;;
60610;SDS011;46439;51.164;13.572;2022-09-13T06:03:34;8.50;;;4.90;;
60610;SDS011;46439;51.164;13.572;2022-09-13T06:06:04;5.60;;;4.00;;
60610;SDS011;46439;51.164;13.572;2022-09-13T06:08:33;8.40;;;4.70;;
60610;SDS011;46439;51.164;13.572;2022-09-13T06:11:03;7.90;;;4.90;;
60610;SDS011;46439;51.164;13.572;2022-09-13T06:13:33;10.60;;;4.20;;
60610;SDS011;46439;51.164;13.572;2022-09-13T06:16:03;7.20;;;4.70;;
60610;SDS011;46439;51.164;13.572;2022-09-13T06:18:33;7.20;;;4.80;;
60610;SDS011;46439;51.164;13.572;2022-09-13T06:21:03;8.70;;;4.60;;
60610;SDS011;46439;51.164;13.572;2022-09-13T06:23:33;7.10;;;3.80;;
60610;SDS011;46439;51.164;13.572;2022-09-13T06:26:03;10.10;;;3.90;;
60610;SDS011;46439;51.164;13.572;2022-09-13T06:28:33;6.30;;;4.30;;
60610;SDS011;46439;51.164;13.572;2022-09-13T06:31:03;5.70;;;4.00;;
60610;SDS011;46439;51.164;13.572;2022-09-13T06:33:33;9.00;;;4.00;;
60610;SDS011;46439;51.164;13.572;2022-09-13T06:36:03;10.00;;;4.80;;
60610;SDS011;46439;51.164;13.572;2022-09-13T06:38:33;5.10;;;3.60;;
60610;SDS011;46439;51.164;13.572;2022-09-13T06:41:02;6.20;;;4.20;;
60610;SDS011;46439;51.164;13.572;2022-09-13T06:43:32;4.80;;;3.90;;
60610;SDS011;46439;51.164;13.572;2022-09-13T06:46:02;7.20;;;4.20;;
60610;SDS011;46439;51.164;13.572;2022-09-13T06:48:33;13.40;;;4.30;;
60610;SDS011;46439;51.164;13.572;2022-09-13T06:51:04;5.20;;;4.10;;
60610;SDS011;46439;51.164;13.572;2022-09-13T06:53:35;15.60;;;8.70;;
60610;SDS011;46439;51.164;13.572;2022-09-13T06:56:05;5.90;;;4.40;;
60610;SDS011;46439;51.164;13.572;2022-09-13T06:58:36;7.30;;;4.80;;
60610;SDS011;46439;51.164;13.572;2022-09-13T07:01:07;6.20;;;4.70;;
60610;SDS011;46439;51.164;13.572;2022-09-13T07:06:15;6.30;;;3.70;;
60610;SDS011;46439;51.164;13.572;2022-09-13T07:08:45;6.20;;;3.80;;
60610;SDS011;46439;51.164;13.572;2022-09-13T07:11:15;4.70;;;3.90;;
60610;SDS011;46439;51.164;13.572;2022-09-13T07:13:47;5.90;;;3.90;;
60610;SDS011;46439;51.164;13.572;2022-09-13T07:16:17;6.40;;;4.00;;
60610;SDS011;46439;51.164;13.572;2022-09-13T07:18:50;5.50;;;4.10;;
60610;SDS011;46439;51.164;13.572;2022-09-13T07:21:20;6.70;;;4.30;;
60610;SDS011;46439;51.164;13.572;2022-09-13T07:23:49;5.50;;;3.80;;
60610;SDS011;46439;51.164;13.572;2022-09-13T07:26:19;6.00;;;4.00;;
60610;SDS011;46439;51.164;13.572;2022-09-13T07:28:48;5.30;;;3.70;;
60610;SDS011;46439;51.164;13.572;2022-09-13T07:31:18;5.70;;;4.10;;
60610;SDS011;46439;51.164;13.572;2022-09-13T07:33:52;6.80;;;3.80;;
60610;SDS011;46439;51.164;13.572;2022-09-13T07:36:22;5.60;;;4.10;;
60610;SDS011;46439;51.164;13.572;2022-09-13T07:38:51;6.40;;;4.00;;
60610;SDS011;46439;51.164;13.572;2022-09-13T07:41:20;4.80;;;3.40;;
60610;SDS011;46439;51.164;13.572;2022-09-13T07:43:49;4.90;;;3.90;;
60610;SDS011;46439;51.164;13.572;2022-09-13T07:46:18;6.60;;;4.00;;
60610;SDS011;46439;51.164;13.572;2022-09-13T07:48:48;6.70;;;3.90;;
60610;SDS011;46439;51.164;13.572;2022-09-13T07:51:19;8.00;;;3.70;;
60610;SDS011;46439;51.164;13.572;2022-09-13T07:53:49;5.10;;;3.60;;
60610;SDS011;46439;51.164;13.572;2022-09-13T07:56:22;4.90;;;3.70;;
60610;SDS011;46439;51.164;13.572;2022-09-13T07:58:51;4.50;;;3.60;;
60610;SDS011;46439;51.164;13.572;2022-09-13T08:01:21;5.10;;;3.90;;
60610;SDS011;46439;51.164;13.572;2022-09-13T08:03:51;4.30;;;3.60;;
60610;SDS011;46439;51.164;13.572;2022-09-13T08:06:21;6.60;;;4.00;;
60610;SDS011;46439;51.164;13.572;2022-09-13T08:08:50;5.90;;;4.30;;
60610;SDS011;46439;51.164;13.572;2022-09-13T08:11:19;6.10;;;3.80;;
60610;SDS011;46439;51.164;13.572;2022-09-13T08:13:49;4.60;;;3.50;;
60610;SDS011;46439;51.164;13.572;2022-09-13T08:16:18;6.40;;;3.60;;
60610;SDS011;46439;51.164;13.572;2022-09-13T08:18:48;5.90;;;3.50;;
60610;SDS011;46439;51.164;13.572;2022-09-13T08:21:17;5.40;;;3.50;;
60610;SDS011;46439;51.164;13.572;2022-09-13T08:23:46;5.50;;;3.20;;
60610;SDS011;46439;51.164;13.572;2022-09-13T08:26:15;4.80;;;3.30;;
60610;SDS011;46439;51.164;13.572;2022-09-13T08:28:43;6.70;;;4.00;;
60610;SDS011;46439;51.164;13.572;2022-09-13T08:31:12;4.90;;;3.50;;
60610;SDS011;46439;51.164;13.572;2022-09-13T08:33:43;5.30;;;3.70;;
60610;SDS011;46439;51.164;13.572;2022-09-13T08:36:13;5.80;;;3.90;;
60610;SDS011;46439;51.164;13.572;2022-09-13T08:38:45;8.20;;;4.40;;
60610;SDS011;46439;51.164;13.572;2022-09-13T08:41:26;6.60;;;4.10;;
60610;SDS011;46439;51.164;13.572;2022-09-13T08:44:14;5.90;;;4.30;;
60610;SDS011;46439;51.164;13.572;2022-09-13T08:46:52;6.60;;;4.80;;
60610;SDS011;46439;51.164;13.572;2022-09-13T08:49:30;4.80;;;4.10;;
60610;SDS011;46439;51.164;13.572;2022-09-13T08:52:02;7.60;;;4.10;;
60610;SDS011;46439;51.164;13.572;2022-09-13T08:54:50;5.50;;;4.70;;
60610;SDS011;46439;51.164;13.572;2022-09-13T08:57:22;7.30;;;4.30;;
60610;SDS011;46439;51.164;13.572;2022-09-13T08:59:59;6.00;;;3.80;;
60610;SDS011;46439;51.164;13.572;2022-09-13T09:02:45;7.00;;;3.50;;
60610;SDS011;46439;51.164;13.572;2022-09-13T09:05:22;6.60;;;3.90;;
60610;SDS011;46439;51.164;13.572;2022-09-13T09:07:52;4.90;;;3.70;;
60610;SDS011;46439;51.164;13.572;2022-09-13T09:10:26;6.20;;;3.80;;
60610;SDS011;46439;51.164;13.572;2022-09-13T09:12:59;5.40;;;3.70;;
60610;SDS011;46439;51.164;13.572;2022-09-13T09:15:32;4.40;;;3.60;;
60610;SDS011;46439;51.164;13.572;2022-09-13T09:18:08;4.20;;;3.60;;
60610;SDS011;46439;51.164;13.572;2022-09-13T09:20:40;6.50;;;3.40;;
60610;SDS011;46439;51.164;13.572;2022-09-13T09:23:13;6.40;;;3.30;;
60610;SDS011;46439;51.164;13.572;2022-09-13T09:25:43;5.70;;;3.60;;
60610;SDS011;46439;51.164;13.572;2022-09-13T09:28:13;5.70;;;3.50;;
60610;SDS011;46439;51.164;13.572;2022-09-13T09:30:45;4.70;;;3.70;;
60610;SDS011;46439;51.164;13.572;2022-09-13T09:33:26;6.90;;;4.00;;
60610;SDS011;46439;51.164;13.572;2022-09-13T09:36:08;7.10;;;3.70;;
60610;SDS011;46439;51.164;13.572;2022-09-13T09:38:46;8.50;;;3.60;;
60610;SDS011;46439;51.164;13.572;2022-09-13T09:41:17;7.50;;;3.70;;
60610;SDS011;46439;51.164;13.572;2022-09-13T09:43:53;6.20;;;3.40;;
60610;SDS011;46439;51.164;13.572;2022-09-13T09:46:26;4.20;;;3.00;;
60610;SDS011;46439;51.164;13.572;2022-09-13T09:49:00;4.60;;;3.10;;
60610;SDS011;46439;51.164;13.572;2022-09-13T09:51:52;4.00;;;2.90;;
60610;SDS011;46439;51.164;13.572;2022-09-13T09:54:21;4.70;;;3.20;;
60610;SDS011;46439;51.164;13.572;2022-09-13T09:56:53;3.80;;;3.10;;
60610;SDS011;46439;51.164;13.572;2022-09-13T09:59:25;4.90;;;3.00;;
60610;SDS011;46439;51.164;13.572;2022-09-13T10:01:55;3.80;;;2.80;;
60610;SDS011;46439;51.164;13.572;2022-09-13T10:04:24;5.20;;;2.90;;
60610;SDS011;46439;51.164;13.572;2022-09-13T10:09:54;3.60;;;2.60;;
60610;SDS011;46439;51.164;13.572;2022-09-13T10:12:27;4.10;;;2.60;;
60610;SDS011;46439;51.164;13.572;2022-09-13T10:15:03;4.20;;;3.00;;
60610;SDS011;46439;51.164;13.572;2022-09-13T10:17:40;3.70;;;2.80;;
60610;SDS011;46439;51.164;13.572;2022-09-13T10:20:19;4.90;;;2.70;;
60610;SDS011;46439;51.164;13.572;2022-09-13T10:25:55;3.10;;;2.80;;
60610;SDS011;46439;51.164;13.572;2022-09-13T10:28:27;3.40;;;2.50;;
60610;SDS011;46439;51.164;13.572;2022-09-13T10:31:00;3.20;;;2.40;;
60610;SDS011;46439;51.164;13.572;2022-09-13T10:33:32;3.90;;;2.50;;
60610;SDS011;46439;51.164;13.572;2022-09-13T10:36:03;3.60;;;2.70;;
60610;SDS011;46439;51.164;13.572;2022-09-13T10:38:38;3.80;;;2.40;;
60610;SDS011;46439;51.164;13.572;2022-09-13T10:43:47;2.90;;;2.30;;
60610;SDS011;46439;51.164;13.572;2022-09-13T10:46:22;3.50;;;2.40;;
60610;SDS011;46439;51.164;13.572;2022-09-13T10:48:51;2.70;;;2.50;;
60610;SDS011;46439;51.164;13.572;2022-09-13T10:51:30;2.60;;;2.40;;
60610;SDS011;46439;51.164;13.572;2022-09-13T10:54:18;2.90;;;2.60;;
60610;SDS011;46439;51.164;13.572;2022-09-13T10:56:49;6.00;;;3.20;;
60610;SDS011;46439;51.164;13.572;2022-09-13T10:59:22;6.20;;;2.80;;
60610;SDS011;46439;51.164;13.572;2022-09-13T11:01:56;4.60;;;2.40;;
60610;SDS011;46439;51.164;13.572;2022-09-13T11:04:54;3.00;;;2.50;;
60610;SDS011;46439;51.164;13.572;2022-09-13T11:07:41;2.50;;;2.20;;
60610;SDS011;46439;51.164;13.572;2022-09-13T11:10:19;4.20;;;2.70;;
60610;SDS011;46439;51.164;13.572;2022-09-13T11:12:55;3.80;;;2.50;;
60610;SDS011;46439;51.164;13.572;2022-09-13T11:15:41;3.10;;;2.30;;
60610;SDS011;46439;51.164;13.572;2022-09-13T11:18:36;2.70;;;2.40;;
60610;SDS011;46439;51.164;13.572;2022-09-13T11:21:23;3.00;;;2.40;;
60610;SDS011;46439;51.164;13.572;2022-09-13T11:24:11;3.40;;;2.50;;
60610;SDS011;46439;51.164;13.572;2022-09-13T11:26:58;3.30;;;2.30;;
60610;SDS011;46439;51.164;13.572;2022-09-13T11:29:39;5.00;;;2.40;;
60610;SDS011;46439;51.164;13.572;2022-09-13T11:32:25;4.60;;;2.00;;
60610;SDS011;46439;51.164;13.572;2022-09-13T11:35:11;3.30;;;2.40;;
60610;SDS011;46439;51.164;13.572;2022-09-13T11:37:50;4.50;;;2.40;;
60610;SDS011;46439;51.164;13.572;2022-09-13T11:40:33;2.90;;;2.20;;
60610;SDS011;46439;51.164;13.572;2022-09-13T11:43:15;2.80;;;2.10;;
60610;SDS011;46439;51.164;13.572;2022-09-13T11:45:57;3.20;;;2.30;;
60610;SDS011;46439;51.164;13.572;2022-09-13T11:48:48;5.40;;;2.20;;
60610;SDS011;46439;51.164;13.572;2022-09-13T11:51:34;2.80;;;2.00;;
60610;SDS011;46439;51.164;13.572;2022-09-13T11:54:14;2.90;;;2.10;;
60610;SDS011;46439;51.164;13.572;2022-09-13T11:56:51;4.20;;;2.30;;
60610;SDS011;46439;51.164;13.572;2022-09-13T11:59:28;5.00;;;2.10;;
60610;SDS011;46439;51.164;13.572;2022-09-13T12:02:10;3.60;;;2.20;;
60610;SDS011;46439;51.164;13.572;2022-09-13T12:04:44;2.90;;;2.20;;
60610;SDS011;46439;51.164;13.572;2022-09-13T12:07:26;2.50;;;2.00;;
60610;SDS011;46439;51.164;13.572;2022-09-13T12:10:02;4.00;;;2.10;;
60610;SDS011;46439;51.164;13.572;2022-09-13T12:12:39;2.60;;;2.20;;
60610;SDS011;46439;51.164;13.572;2022-09-13T12:15:14;2.80;;;2.30;;
60610;SDS011;46439;51.164;13.572;2022-09-13T12:17:47;3.10;;;2.50;;
60610;SDS011;46439;51.164;13.572;2022-09-13T12:20:23;2.60;;;2.40;;
60610;SDS011;46439;51.164;13.572;2022-09-13T12:23:00;4.30;;;2.10;;
60610;SDS011;46439;51.164;13.572;2022-09-13T12:25:33;2.30;;;2.10;;
60610;SDS011;46439;51.164;13.572;2022-09-13T12:28:10;3.60;;;2.10;;
60610;SDS011;46439;51.164;13.572;2022-09-13T12:30:46;2.80;;;2.10;;
60610;SDS011;46439;51.164;13.572;2022-09-13T12:33:19;5.30;;;2.10;;
60610;SDS011;46439;51.164;13.572;2022-09-13T12:38:48;3.90;;;2.60;;
60610;SDS011;46439;51.164;13.572;2022-09-13T12:41:34;2.10;;;1.90;;
60610;SDS011;46439;51.164;13.572;2022-09-13T12:50:12;2.10;;;1.80;;
60610;SDS011;46439;51.164;13.572;2022-09-13T12:53:00;3.70;;;2.10;;
60610;SDS011;46439;51.164;13.572;2022-09-13T12:55:42;1.90;;;1.70;;
60610;SDS011;46439;51.164;13.572;2022-09-13T12:58:30;3.30;;;2.40;;
60610;SDS011;46439;51.164;13.572;2022-09-13T13:01:10;2.20;;;2.00;;
60610;SDS011;46439;51.164;13.572;2022-09-13T13:03:44;3.00;;;2.00;;
60610;SDS011;46439;51.164;13.572;2022-09-13T13:06:23;3.80;;;2.10;;
60610;SDS011;46439;51.164;13.572;2022-09-13T13:08:56;4.40;;;2.30;;
60610;SDS011;46439;51.164;13.572;2022-09-13T13:11:26;2.00;;;1.90;;
60610;SDS011;46439;51.164;13.572;2022-09-13T13:14:21;2.10;;;1.90;;
60610;SDS011;46439;51.164;13.572;2022-09-13T13:23:16;2.40;;;2.10;;
60610;SDS011;46439;51.164;13.572;2022-09-13T13:26:04;2.40;;;2.00;;
60610;SDS011;46439;51.164;13.572;2022-09-13T13:31:37;3.70;;;2.20;;
60610;SDS011;46439;51.164;13.572;2022-09-13T13:37:03;3.10;;;2.10;;
60610;SDS011;46439;51.164;13.572;2022-09-13T13:45:57;5.50;;;2.30;;
60610;SDS011;46439;51.164;13.572;2022-09-13T13:48:40;3.40;;;2.30;;
60610;SDS011;46439;51.164;13.572;2022-09-13T13:51:13;3.10;;;2.00;;
60610;SDS011;46439;51.164;13.572;2022-09-13T13:53:46;2.30;;;2.00;;
60610;SDS011;46439;51.164;13.572;2022-09-13T13:56:31;2.40;;;1.90;;
60610;SDS011;46439;51.164;13.572;2022-09-13T13:59:12;2.70;;;2.00;;
60610;SDS011;46439;51.164;13.572;2022-09-13T14:01:47;2.80;;;2.10;;
60610;SDS011;46439;51.164;13.572;2022-09-13T14:04:30;2.50;;;1.90;;
60610;SDS011;46439;51.164;13.572;2022-09-13T14:07:15;3.30;;;2.20;;
60610;SDS011;46439;51.164;13.572;2022-09-13T14:09:57;2.70;;;2.10;;
60610;SDS011;46439;51.164;13.572;2022-09-13T14:12:36;4.60;;;1.90;;
60610;SDS011;46439;51.164;13.572;2022-09-13T14:21:21;3.60;;;2.10;;
60610;SDS011;46439;51.164;13.572;2022-09-13T14:23:54;2.30;;;2.10;;
60610;SDS011;46439;51.164;13.572;2022-09-13T14:26:44;2.50;;;2.10;;
60610;SDS011;46439;51.164;13.572;2022-09-13T14:29:16;5.40;;;2.00;;
60610;SDS011;46439;51.164;13.572;2022-09-13T14:34:21;4.00;;;2.00;;
60610;SDS011;46439;51.164;13.572;2022-09-13T14:36:54;3.20;;;2.00;;
60610;SDS011;46439;51.164;13.572;2022-09-13T14:39:24;2.90;;;1.90;;
60610;SDS011;46439;51.164;13.572;2022-09-13T14:42:01;2.00;;;1.80;;
60610;SDS011;46439;51.164;13.572;2022-09-13T14:44:43;2.20;;;2.00;;
60610;SDS011;46439;51.164;13.572;2022-09-13T14:47:14;3.40;;;2.10;;
60610;SDS011;46439;51.164;13.572;2022-09-13T14:49:48;2.30;;;2.10;;
60610;SDS011;46439;51.164;13.572;2022-09-13T14:52:23;4.30;;;2.00;;
60610;SDS011;46439;51.164;13.572;2022-09-13T14:54:56;2.10;;;2.00;;
60610;SDS011;46439;51.164;13.572;2022-09-13T14:57:29;5.50;;;2.10;;
60610;SDS011;46439;51.164;13.572;2022-09-13T15:00:03;2.50;;;2.20;;
60610;SDS011;46439;51.164;13.572;2022-09-13T15:02:42;3.80;;;1.90;;
60610;SDS011;46439;51.164;13.572;2022-09-13T15:05:15;2.70;;;1.90;;
60610;SDS011;46439;51.164;13.572;2022-09-13T15:07:45;3.90;;;2.00;;
60610;SDS011;46439;51.164;13.572;2022-09-13T15:10:21;1.90;;;1.70;;
60610;SDS011;46439;51.164;13.572;2022-09-13T15:12:52;2.30;;;1.90;;
60610;SDS011;46439;51.164;13.572;2022-09-13T15:15:34;4.20;;;1.80;;
60610;SDS011;46439;51.164;13.572;2022-09-13T15:18:05;4.90;;;2.00;;
60610;SDS011;46439;51.164;13.572;2022-09-13T15:20:49;4.40;;;1.90;;
60610;SDS011;46439;51.164;13.572;2022-09-13T15:23:22;3.10;;;2.00;;
60610;SDS011;46439;51.164;13.572;2022-09-13T15:25:55;4.10;;;1.90;;
60610;SDS011;46439;51.164;13.572;2022-09-13T15:28:27;3.30;;;2.20;;
60610;SDS011;46439;51.164;13.572;2022-09-13T15:30:59;3.40;;;1.90;;
60610;SDS011;46439;51.164;13.572;2022-09-13T15:33:29;4.30;;;2.20;;
60610;SDS011;46439;51.164;13.572;2022-09-13T15:36:26;5.10;;;2.40;;
60610;SDS011;46439;51.164;13.572;2022-09-13T15:38:56;2.30;;;2.00;;
60610;SDS011;46439;51.164;13.572;2022-09-13T15:41:28;4.00;;;2.10;;
60610;SDS011;46439;51.164;13.572;2022-09-13T15:43:59;2.50;;;2.10;;
60610;SDS011;46439;51.164;13.572;2022-09-13T15:46:29;4.10;;;2.10;;
60610;SDS011;46439;51.164;13.572;2022-09-13T15:48:59;3.30;;;2.20;;
60610;SDS011;46439;51.164;13.572;2022-09-13T15:51:31;5.00;;;2.00;;
60610;SDS011;46439;51.164;13.572;2022-09-13T15:54:04;5.50;;;2.40;;
60610;SDS011;46439;51.164;13.572;2022-09-13T15:56:36;3.00;;;2.30;;
60610;SDS011;46439;51.164;13.572;2022-09-13T15:59:07;3.40;;;2.30;;
60610;SDS011;46439;51.164;13.572;2022-09-13T16:01:38;2.90;;;2.10;;
60610;SDS011;46439;51.164;13.572;2022-09-13T16:04:06;3.10;;;1.80;;
60610;SDS011;46439;51.164;13.572;2022-09-13T16:06:35;3.90;;;2.10;;
60610;SDS011;46439;51.164;13.572;2022-09-13T16:09:07;2.50;;;1.80;;
60610;SDS011;46439;51.164;13.572;2022-09-13T16:11:43;6.50;;;2.30;;
60610;SDS011;46439;51.164;13.572;2022-09-13T16:14:13;5.80;;;2.10;;